createdAt,value
2018-12-19T16:40:24.508Z,78.60
2018-12-19T16:40:58.692Z,78.20
2018-12-19T16:41:33.240Z,79.20
2018-12-19T16:42:06.748Z,80.20
2018-12-19T16:42:45.943Z,81.10
2018-12-19T16:43:15.740Z,81.60
2018-12-19T16:43:49.250Z,81.80
2018-12-19T16:44:22.881Z,81.90
2018-12-19T16:44:56.373Z,82.10
2018-12-19T16:45:29.837Z,82.20
2018-12-19T16:46:03.396Z,82.10
2018-12-19T16:46:37.621Z,82.00
2018-12-19T16:47:17.667Z,81.60
2018-12-19T16:47:51.777Z,81.30
2018-12-19T16:48:25.257Z,81.00
2018-12-19T16:48:58.711Z,80.40
2018-12-19T16:49:32.200Z,80.00
2018-12-19T16:50:06.995Z,79.70
2018-12-19T16:50:40.472Z,79.60
2018-12-19T16:51:14.001Z,79.30
2018-12-19T16:51:47.425Z,78.80
2018-12-19T16:52:21.571Z,78.00
2018-12-19T16:52:56.179Z,77.50
2018-12-19T16:53:29.570Z,77.10
2018-12-19T16:54:03.045Z,75.80
2018-12-19T16:54:36.536Z,75.60
2018-12-19T16:55:10.078Z,75.30
2018-12-19T16:55:44.240Z,75.20
2018-12-19T16:56:18.297Z,74.80
2018-12-19T16:56:51.796Z,74.70
2018-12-19T16:57:25.300Z,74.50
2018-12-19T16:57:58.823Z,74.20
2018-12-19T16:58:32.383Z,74.00
2018-12-19T16:59:06.447Z,73.90
2018-12-19T16:59:40.554Z,73.70
2018-12-19T17:00:14.290Z,73.00
2018-12-19T17:00:47.749Z,72.80
2018-12-19T17:01:21.259Z,72.60
2018-12-19T17:01:54.680Z,72.50
2018-12-19T17:02:28.170Z,72.50
2018-12-19T17:03:01.690Z,72.40
2018-12-19T17:03:35.116Z,72.30
2018-12-19T17:04:08.582Z,72.00
2018-12-19T17:04:42.094Z,71.60
2018-12-19T17:05:17.352Z,71.30
2018-12-19T17:05:51.016Z,71.10
2018-12-19T17:06:24.515Z,70.90
2018-12-19T17:06:57.998Z,70.60
2018-12-19T17:07:31.456Z,70.60
2018-12-19T17:08:04.934Z,70.50
2018-12-19T17:08:38.414Z,70.50
2018-12-19T17:09:12.699Z,70.50
2018-12-19T17:09:46.246Z,70.50
2018-12-19T17:10:19.758Z,70.50
2018-12-19T17:10:53.312Z,70.70
2018-12-19T17:11:26.894Z,70.70
2018-12-19T17:12:00.537Z,70.70
2018-12-19T17:12:33.949Z,70.70
2018-12-19T17:13:07.425Z,70.60
2018-12-19T17:13:40.886Z,70.40
2018-12-19T17:14:14.395Z,70.40
2018-12-19T17:14:47.822Z,70.40
2018-12-19T17:15:21.461Z,70.40
2018-12-19T17:15:54.938Z,70.40
2018-12-19T17:16:28.415Z,70.30
2018-12-19T17:17:01.911Z,70.20
2018-12-19T17:17:35.985Z,70.50
2018-12-19T17:18:09.428Z,70.60
2018-12-19T17:18:43.052Z,70.60
2018-12-19T17:19:16.602Z,70.60
2018-12-19T17:19:50.332Z,70.60
2018-12-19T17:20:23.851Z,70.30
2018-12-19T17:20:57.403Z,70.10
2018-12-19T17:21:30.955Z,70.00
2018-12-19T17:22:04.481Z,70.00
2018-12-19T17:22:37.992Z,70.00
2018-12-19T17:23:12.275Z,69.70
2018-12-19T17:23:46.140Z,69.80
2018-12-19T17:24:21.704Z,69.90
2018-12-19T17:24:55.307Z,70.00
2018-12-19T17:25:28.871Z,70.10
2018-12-19T17:26:02.494Z,70.10
2018-12-19T17:26:36.106Z,70.10
2018-12-19T17:27:09.673Z,69.80
2018-12-19T17:27:43.366Z,70.00
2018-12-19T17:28:18.399Z,69.90
2018-12-19T17:28:51.830Z,69.70
2018-12-19T17:29:25.291Z,69.60
2018-12-19T17:29:59.724Z,69.60
2018-12-19T17:30:33.270Z,69.60
2018-12-19T17:31:06.742Z,69.40
2018-12-19T17:31:40.232Z,69.30
2018-12-19T17:32:13.876Z,69.40
2018-12-19T17:32:47.482Z,69.40
2018-12-19T17:33:21.663Z,69.40
2018-12-19T17:33:56.060Z,69.40
2018-12-19T17:34:30.186Z,69.30
2018-12-19T17:35:04.282Z,69.20
2018-12-19T17:35:38.380Z,69.30
2018-12-19T17:36:12.632Z,69.20
2018-12-19T17:36:46.590Z,69.30
2018-12-19T17:37:20.138Z,69.40
2018-12-19T17:37:53.639Z,69.40
2018-12-19T17:38:27.149Z,69.30
2018-12-19T17:39:00.679Z,69.40
2018-12-19T17:39:35.541Z,69.30
2018-12-19T17:40:09.839Z,69.20
2018-12-19T17:40:43.281Z,69.20
2018-12-19T17:41:16.842Z,69.30
2018-12-19T17:41:50.324Z,69.40
2018-12-19T17:42:23.827Z,69.40
2018-12-19T17:42:59.528Z,69.40
2018-12-19T17:43:32.929Z,69.60
2018-12-19T17:44:06.506Z,69.60
2018-12-19T17:44:40.052Z,69.20
2018-12-19T17:45:13.562Z,69.20
2018-12-19T17:45:47.005Z,69.20
2018-12-19T17:46:20.494Z,69.10
2018-12-19T17:46:55.217Z,69.20
2018-12-19T17:47:28.707Z,69.10
2018-12-19T17:48:03.007Z,69.30
2018-12-19T17:48:36.566Z,69.30
2018-12-19T17:49:10.098Z,69.40
2018-12-19T17:49:43.701Z,69.40
2018-12-19T17:50:17.826Z,69.50
2018-12-19T17:50:51.246Z,69.50
2018-12-19T17:51:24.701Z,69.50
2018-12-19T17:51:58.261Z,69.60
2018-12-19T17:52:31.727Z,69.70
2018-12-19T17:53:05.239Z,69.60
2018-12-19T17:53:38.919Z,70.20
2018-12-19T17:54:12.475Z,69.50
2018-12-19T17:54:45.971Z,69.50
2018-12-19T17:55:19.467Z,69.50
2018-12-19T17:55:52.953Z,69.60
2018-12-19T17:56:26.472Z,69.80
2018-12-19T17:56:59.978Z,69.90
2018-12-19T17:57:33.429Z,70.00
2018-12-19T17:58:06.904Z,70.10
2018-12-19T17:58:40.381Z,70.10
2018-12-19T17:59:14.545Z,70.10
2018-12-19T17:59:48.051Z,70.10
2018-12-19T18:00:21.504Z,70.40
2018-12-19T18:00:55.567Z,70.50
2018-12-19T18:01:29.746Z,70.40
2018-12-19T18:02:03.278Z,70.40
2018-12-19T18:02:36.948Z,70.40
2018-12-19T18:03:11.177Z,70.10
2018-12-19T18:03:44.593Z,69.90
2018-12-19T18:04:18.084Z,69.70
2018-12-19T18:04:51.608Z,70.40
2018-12-19T18:05:25.820Z,70.00
2018-12-19T18:05:59.390Z,69.90
2018-12-19T18:06:32.823Z,69.90
2018-12-19T18:07:06.896Z,69.90
2018-12-19T18:07:40.362Z,70.00
2018-12-19T18:08:13.999Z,69.90
2018-12-19T18:08:47.457Z,70.00
2018-12-19T18:09:20.943Z,69.80
2018-12-19T18:09:54.403Z,69.60
2018-12-19T18:10:27.917Z,69.60
2018-12-19T18:11:01.470Z,69.50
2018-12-19T18:11:35.155Z,69.40
2018-12-19T18:12:08.671Z,69.20
2018-12-19T18:12:42.145Z,69.20
2018-12-19T18:13:15.769Z,69.40
2018-12-19T18:13:49.315Z,69.30
2018-12-19T18:14:22.797Z,69.00
2018-12-19T18:14:56.225Z,68.60
2018-12-19T18:15:29.692Z,68.30
2018-12-19T18:16:03.239Z,68.50
2018-12-19T18:16:36.719Z,68.70
2018-12-19T18:17:10.145Z,68.70
2018-12-19T18:17:43.593Z,68.60
2018-12-19T18:18:17.293Z,68.70
2018-12-19T18:18:50.709Z,68.70
2018-12-19T18:19:24.276Z,68.40
2018-12-19T18:19:57.737Z,68.40
2018-12-19T18:20:31.222Z,68.40
2018-12-19T18:21:04.692Z,68.50
2018-12-19T18:21:38.135Z,68.60
2018-12-19T18:22:11.612Z,68.60
2018-12-19T18:22:45.074Z,69.30
2018-12-19T18:23:19.309Z,68.60
2018-12-19T18:23:53.306Z,68.50
2018-12-19T18:24:26.755Z,68.40
2018-12-19T18:25:00.247Z,68.50
2018-12-19T18:25:33.804Z,68.70
2018-12-19T18:26:07.331Z,68.70
2018-12-19T18:26:41.107Z,68.80
2018-12-19T18:27:14.597Z,68.60
2018-12-19T18:27:48.095Z,68.30
2018-12-19T18:28:21.614Z,68.30
2018-12-19T18:28:56.881Z,68.00
2018-12-19T18:29:30.326Z,67.90
2018-12-19T18:30:04.518Z,68.10
2018-12-19T18:30:38.042Z,68.00
2018-12-19T18:31:11.493Z,68.10
2018-12-19T18:31:44.984Z,68.40
2018-12-19T18:32:19.132Z,68.50
2018-12-19T18:32:52.630Z,68.60
2018-12-19T18:33:27.228Z,68.70
2018-12-19T18:34:00.663Z,68.50
2018-12-19T18:34:34.153Z,68.30
2018-12-19T18:35:08.550Z,68.10
2018-12-19T18:35:42.099Z,68.30
2018-12-19T18:36:16.365Z,68.10
2018-12-19T18:36:49.812Z,68.00
2018-12-19T18:37:23.287Z,67.80
2018-12-19T18:37:56.754Z,67.60
2018-12-19T18:38:30.343Z,67.30
2018-12-19T18:39:07.553Z,67.40
2018-12-19T18:39:41.101Z,67.70
2018-12-19T18:40:14.568Z,68.00
2018-12-19T18:40:48.029Z,68.00
2018-12-19T18:41:21.479Z,68.00
2018-12-19T18:41:54.911Z,68.20
2018-12-19T18:42:28.526Z,67.90
2018-12-19T18:43:01.981Z,67.80
2018-12-19T18:43:35.489Z,67.80
2018-12-19T18:44:08.926Z,68.20
2018-12-19T18:44:42.432Z,68.10
2018-12-19T18:45:15.958Z,68.10
2018-12-19T18:45:49.453Z,68.20
2018-12-19T18:46:22.993Z,68.10
2018-12-19T18:46:56.534Z,68.00
2018-12-19T18:47:30.630Z,68.00
2018-12-19T18:48:04.914Z,68.00
2018-12-19T18:48:38.556Z,68.00
2018-12-19T18:49:12.052Z,67.80
2018-12-19T18:49:45.540Z,68.20
2018-12-19T18:50:18.956Z,68.20
2018-12-19T18:50:52.888Z,68.30
2018-12-19T18:51:26.438Z,68.20
2018-12-19T18:51:59.926Z,68.20
2018-12-19T18:52:33.427Z,68.10
2018-12-19T18:53:06.915Z,68.00
2018-12-19T18:53:40.414Z,67.90
2018-12-19T18:54:13.865Z,67.70
2018-12-19T18:54:47.278Z,68.00
2018-12-19T18:55:20.849Z,68.00
2018-12-19T18:55:54.444Z,68.00
2018-12-19T18:56:28.097Z,67.90
2018-12-19T18:57:02.019Z,68.10
2018-12-19T18:57:35.609Z,67.90
2018-12-19T18:58:09.069Z,67.50
2018-12-19T18:58:42.590Z,67.60
2018-12-19T18:59:16.032Z,67.60
2018-12-19T18:59:49.761Z,67.50
2018-12-19T19:00:33.228Z,67.60
2018-12-19T19:01:06.772Z,67.60
2018-12-19T19:01:40.281Z,67.70
2018-12-19T19:02:13.852Z,67.70
2018-12-19T19:02:47.583Z,67.80
2018-12-19T19:03:21.823Z,67.80
2018-12-19T19:03:55.292Z,67.90
2018-12-19T19:04:28.923Z,68.00
2018-12-19T19:05:02.449Z,68.10
2018-12-19T19:05:35.995Z,68.00
2018-12-19T19:06:09.554Z,68.20
2018-12-19T19:06:43.113Z,68.20
2018-12-19T19:07:16.591Z,68.20
2018-12-19T19:07:50.130Z,68.10
2018-12-19T19:08:23.663Z,68.10
2018-12-19T19:08:57.165Z,68.30
2018-12-19T19:09:30.763Z,68.50
2018-12-19T19:10:05.057Z,68.40
2018-12-19T19:10:39.508Z,68.60
2018-12-19T19:11:13.841Z,68.60
2018-12-19T19:11:47.409Z,68.70
2018-12-19T19:12:20.978Z,68.80
2018-12-19T19:12:54.490Z,68.70
2018-12-19T19:13:28.086Z,68.70
2018-12-19T19:14:01.668Z,68.80
2018-12-19T19:14:35.148Z,69.00
2018-12-19T19:15:08.649Z,69.00
2018-12-19T19:15:42.278Z,69.80
2018-12-19T19:16:15.717Z,69.10
2018-12-19T19:16:49.130Z,69.20
2018-12-19T19:17:22.810Z,69.30
2018-12-19T19:17:56.323Z,69.30
2018-12-19T19:18:30.012Z,69.40
2018-12-19T19:19:03.977Z,69.40
2018-12-19T19:19:37.458Z,69.20
2018-12-19T19:20:11.078Z,69.10
2018-12-19T19:20:44.579Z,69.30
2018-12-19T19:21:18.065Z,69.10
2018-12-19T19:21:51.674Z,69.20
2018-12-19T19:22:25.161Z,69.20
2018-12-19T19:22:58.646Z,69.10
2018-12-19T19:23:32.893Z,69.30
2018-12-19T19:24:06.430Z,69.30
2018-12-19T19:24:39.855Z,69.30
2018-12-19T19:25:13.423Z,69.40
2018-12-19T19:25:46.937Z,69.50
2018-12-19T19:26:20.763Z,69.60
2018-12-19T19:26:54.283Z,69.70
2018-12-19T19:27:27.842Z,69.60
2018-12-19T19:28:01.321Z,69.50
2018-12-19T19:28:34.835Z,69.60
2018-12-19T19:29:09.035Z,69.60
2018-12-19T19:29:42.600Z,69.70
2018-12-19T19:30:16.074Z,69.70
2018-12-19T19:30:49.544Z,69.60
2018-12-19T19:31:24.111Z,69.50
2018-12-19T19:31:57.787Z,69.70
2018-12-19T19:32:31.258Z,69.70
2018-12-19T19:33:04.885Z,69.60
2018-12-19T19:33:38.513Z,69.60
2018-12-19T19:34:12.214Z,69.60
2018-12-19T19:34:45.658Z,69.70
2018-12-19T19:35:19.127Z,69.70
2018-12-19T19:35:52.600Z,69.70
2018-12-19T19:36:26.483Z,69.60
2018-12-19T19:37:00.072Z,69.70
2018-12-19T19:37:34.364Z,70.60
2018-12-19T19:38:08.854Z,70.80
2018-12-19T19:38:42.296Z,70.80
2018-12-19T19:39:16.061Z,70.90
2018-12-19T19:39:49.571Z,71.10
2018-12-19T19:40:23.105Z,71.20
2018-12-19T19:40:56.599Z,71.30
2018-12-19T19:41:31.033Z,71.30
2018-12-19T19:42:04.628Z,71.20
2018-12-19T19:42:38.083Z,71.30
2018-12-19T19:43:11.775Z,71.30
2018-12-19T19:43:45.277Z,71.40
2018-12-19T19:44:19.682Z,71.30
2018-12-19T19:44:53.150Z,71.40
2018-12-19T19:45:26.606Z,71.30
2018-12-19T19:46:01.029Z,71.40
2018-12-19T19:46:34.768Z,71.60
2018-12-19T19:47:10.368Z,71.70
2018-12-19T19:47:43.929Z,71.70
2018-12-19T19:48:18.334Z,71.80
2018-12-19T19:48:52.261Z,71.70
2018-12-19T19:49:25.845Z,71.80
2018-12-19T19:49:59.293Z,71.90
2018-12-19T19:50:32.773Z,71.90
2018-12-19T19:51:06.312Z,71.90
2018-12-19T19:51:40.244Z,72.00
2018-12-19T19:52:13.676Z,72.00
2018-12-19T19:52:47.374Z,72.00
2018-12-19T19:53:20.941Z,72.00
2018-12-19T19:53:54.472Z,72.10
2018-12-19T19:54:28.140Z,72.00
2018-12-19T19:55:01.578Z,72.00
2018-12-19T19:55:35.037Z,72.00
2018-12-19T19:56:08.594Z,72.20
2018-12-19T19:56:42.136Z,72.20
2018-12-19T19:57:15.589Z,72.30
2018-12-19T19:57:49.026Z,72.30
2018-12-19T19:58:22.615Z,72.20
2018-12-19T19:58:56.042Z,72.20
2018-12-19T19:59:29.521Z,72.20
2018-12-19T20:00:03.550Z,72.90
2018-12-19T20:00:37.030Z,72.20
2018-12-19T20:01:10.468Z,72.20
2018-12-19T20:01:43.997Z,72.40
2018-12-19T20:02:17.430Z,72.20
2018-12-19T20:02:50.927Z,72.20
2018-12-19T20:03:24.378Z,72.10
2018-12-19T20:03:57.884Z,72.20
2018-12-19T20:04:31.960Z,72.30
2018-12-19T20:05:07.164Z,72.40
2018-12-19T20:05:40.711Z,72.60
2018-12-19T20:06:14.618Z,72.90
2018-12-19T20:06:48.086Z,72.90
2018-12-19T20:07:21.656Z,73.10
2018-12-19T20:07:55.846Z,73.10
2018-12-19T20:08:29.337Z,73.10
2018-12-19T20:09:04.058Z,73.30
2018-12-19T20:09:37.531Z,73.30
2018-12-19T20:10:11.106Z,73.30
2018-12-19T20:10:44.574Z,73.20
2018-12-19T20:11:18.144Z,73.30
2018-12-19T20:11:51.619Z,73.30
2018-12-19T20:12:25.152Z,73.30
2018-12-19T20:12:58.608Z,73.30
2018-12-19T20:13:33.426Z,73.50
2018-12-19T20:14:07.446Z,73.50
2018-12-19T20:14:40.929Z,73.60
2018-12-19T20:15:14.396Z,73.70
2018-12-19T20:15:47.890Z,73.70
2018-12-19T20:16:21.335Z,73.80
2018-12-19T20:17:00.000Z,73.90
2018-12-19T20:17:34.275Z,74.00
2018-12-19T20:18:10.139Z,74.00
2018-12-19T20:18:43.588Z,74.10
2018-12-19T20:19:17.030Z,74.10
2018-12-19T20:19:50.474Z,74.20
2018-12-19T20:20:23.872Z,74.90
2018-12-19T20:20:57.669Z,74.20
2018-12-19T20:21:31.149Z,74.10
2018-12-19T20:22:05.364Z,74.20
2018-12-19T20:22:38.867Z,73.70
2018-12-19T20:23:12.303Z,74.20
2018-12-19T20:23:48.700Z,74.20
2018-12-19T20:24:22.876Z,74.20
2018-12-19T20:24:56.348Z,74.20
2018-12-19T20:25:29.836Z,74.40
2018-12-19T20:26:03.409Z,74.40
2018-12-19T20:26:36.901Z,74.60
2018-12-19T20:27:10.370Z,74.50
2018-12-19T20:27:44.165Z,74.60
2018-12-19T20:28:17.640Z,74.50
2018-12-19T20:28:51.101Z,74.40
2018-12-19T20:29:24.798Z,74.40
2018-12-19T20:29:58.243Z,74.40
2018-12-19T20:30:31.735Z,74.50
2018-12-19T20:31:05.207Z,74.50
2018-12-19T20:31:38.685Z,74.40
2018-12-19T20:32:12.152Z,74.30
2018-12-19T20:32:45.637Z,74.30
2018-12-19T20:33:19.386Z,74.40
2018-12-19T20:33:52.814Z,74.40
2018-12-19T20:34:26.248Z,74.30
2018-12-19T20:35:00.041Z,74.10
2018-12-19T20:35:33.677Z,74.10
2018-12-19T20:36:07.139Z,74.00
2018-12-19T20:36:40.708Z,74.00
2018-12-19T20:37:14.387Z,73.90
2018-12-19T20:37:47.877Z,73.80
2018-12-19T20:38:21.894Z,73.80
2018-12-19T20:38:55.315Z,73.70
2018-12-19T20:39:29.498Z,73.60
2018-12-19T20:40:03.114Z,72.50
2018-12-19T20:40:37.122Z,73.50
2018-12-19T20:41:10.651Z,72.40
2018-12-19T20:41:44.086Z,72.40
2018-12-19T20:42:17.574Z,72.30
2018-12-19T20:42:51.689Z,72.20
2018-12-19T20:43:25.144Z,72.20
2018-12-19T20:43:58.640Z,72.30
2018-12-19T20:44:32.182Z,72.10
2018-12-19T20:45:06.849Z,72.10
2018-12-19T20:45:40.350Z,72.10
2018-12-19T20:46:13.818Z,72.10
2018-12-19T20:46:47.333Z,72.10
2018-12-19T20:47:20.823Z,72.20
2018-12-19T20:47:54.276Z,72.10
2018-12-19T20:48:27.761Z,72.00
2018-12-19T20:49:01.158Z,71.90
2018-12-19T20:49:34.867Z,71.90
2018-12-19T20:50:09.098Z,71.80
2018-12-19T20:50:42.540Z,71.80
2018-12-19T20:51:16.016Z,71.70
2018-12-19T20:51:49.501Z,71.70
2018-12-19T20:52:23.022Z,71.70
2018-12-19T20:52:56.467Z,71.70
2018-12-19T20:53:30.012Z,71.70
2018-12-19T20:54:03.536Z,71.50
2018-12-19T20:54:37.041Z,71.60
2018-12-19T20:55:10.680Z,71.60
2018-12-19T20:55:44.228Z,71.60
2018-12-19T20:56:17.675Z,71.60
2018-12-19T20:56:51.345Z,71.40
2018-12-19T20:57:24.963Z,71.50
2018-12-19T20:57:58.625Z,71.50
2018-12-19T20:58:32.425Z,71.50
2018-12-19T20:59:05.982Z,71.50
2018-12-19T20:59:39.669Z,71.50
2018-12-19T21:00:14.064Z,71.50
2018-12-19T21:00:47.706Z,71.40
2018-12-19T21:01:21.265Z,71.40
2018-12-19T21:01:55.804Z,71.40
2018-12-19T21:02:29.274Z,71.30
2018-12-19T21:03:02.782Z,71.40
2018-12-19T21:03:36.204Z,71.30
2018-12-19T21:04:09.719Z,71.20
2018-12-19T21:04:43.146Z,71.20
2018-12-19T21:05:16.565Z,71.20
2018-12-19T21:05:49.990Z,71.20
2018-12-19T21:06:23.552Z,71.20
2018-12-19T21:06:57.099Z,71.20
2018-12-19T21:07:30.587Z,71.10
2018-12-19T21:08:04.240Z,71.20
2018-12-19T21:08:37.678Z,71.20
2018-12-19T21:09:11.223Z,71.20
2018-12-19T21:09:44.690Z,71.10
2018-12-19T21:10:18.326Z,71.30
2018-12-19T21:10:51.780Z,71.10
2018-12-19T21:11:26.106Z,71.20
2018-12-19T21:11:59.521Z,71.90
2018-12-19T21:12:33.042Z,71.10
2018-12-19T21:13:06.518Z,71.10
2018-12-19T21:13:46.528Z,71.10
2018-12-19T21:14:15.632Z,71.10
2018-12-19T21:14:49.813Z,71.20
2018-12-19T21:15:23.453Z,71.10
2018-12-19T21:15:56.982Z,71.00
2018-12-19T21:16:35.762Z,71.00
2018-12-19T21:17:14.597Z,70.90
2018-12-19T21:17:53.349Z,70.90
2018-12-19T21:18:32.202Z,71.10
2018-12-19T21:19:05.713Z,70.90
2018-12-19T21:19:39.159Z,70.90
2018-12-19T21:20:14.191Z,70.80
2018-12-19T21:20:47.647Z,70.90
2018-12-19T21:21:21.369Z,70.90
2018-12-19T21:21:54.869Z,71.10
2018-12-19T21:22:28.349Z,71.00
2018-12-19T21:23:02.050Z,71.10
2018-12-19T21:23:35.613Z,71.10
2018-12-19T21:24:09.102Z,71.10
2018-12-19T21:24:42.585Z,71.10
2018-12-19T21:25:16.143Z,71.20
2018-12-19T21:25:49.661Z,71.20
2018-12-19T21:26:23.117Z,71.20
2018-12-19T21:26:57.155Z,71.30
2018-12-19T21:27:30.687Z,71.40
2018-12-19T21:28:05.638Z,72.10
2018-12-19T21:28:39.104Z,72.10
2018-12-19T21:29:12.601Z,71.50
2018-12-19T21:29:46.374Z,71.80
2018-12-19T21:30:19.856Z,71.80
2018-12-19T21:30:53.306Z,72.00
2018-12-19T21:31:26.778Z,72.10
2018-12-19T21:32:00.227Z,72.20
2018-12-19T21:32:33.797Z,72.20
2018-12-19T21:33:13.832Z,72.00
2018-12-19T21:33:43.373Z,72.00
2018-12-19T21:34:17.498Z,72.60
2018-12-19T21:34:50.959Z,72.00
2018-12-19T21:35:24.466Z,71.90
2018-12-19T21:35:58.103Z,72.00
2018-12-19T21:36:31.630Z,72.00
2018-12-19T21:37:05.125Z,72.10
2018-12-19T21:37:38.574Z,72.00
2018-12-19T21:38:12.428Z,72.00
2018-12-19T21:38:45.878Z,72.10
2018-12-19T21:39:19.448Z,72.20
2018-12-19T21:39:52.947Z,72.20
2018-12-19T21:40:26.430Z,72.30
2018-12-19T21:41:00.119Z,72.30
2018-12-19T21:41:33.970Z,72.40
2018-12-19T21:42:07.602Z,72.30
2018-12-19T21:42:41.538Z,72.50
2018-12-19T21:43:15.025Z,72.50
2018-12-19T21:43:53.663Z,72.60
2018-12-19T21:44:23.480Z,72.50
2018-12-19T21:44:56.932Z,72.60
2018-12-19T21:45:30.412Z,72.60
2018-12-19T21:46:04.029Z,72.80
2018-12-19T21:46:37.792Z,72.70
2018-12-19T21:47:11.546Z,72.80
2018-12-19T21:47:45.668Z,72.90
2018-12-19T21:48:19.289Z,72.80
2018-12-19T21:48:52.856Z,72.90
2018-12-19T21:49:26.416Z,72.90
2018-12-19T21:49:59.839Z,73.00
2018-12-19T21:50:34.317Z,72.90
2018-12-19T21:51:07.759Z,73.00
2018-12-19T21:51:42.193Z,73.00
2018-12-19T21:52:15.807Z,73.10
2018-12-19T21:52:49.326Z,73.00
2018-12-19T21:53:23.117Z,73.00
2018-12-19T21:53:56.558Z,73.10
2018-12-19T21:54:30.057Z,73.20
2018-12-19T21:55:03.699Z,73.30
2018-12-19T21:55:38.008Z,73.40
2018-12-19T21:56:11.652Z,73.50
2018-12-19T21:56:45.244Z,73.50
2018-12-19T21:57:18.724Z,73.60
2018-12-19T21:57:52.274Z,73.60
2018-12-19T21:58:25.949Z,73.60
2018-12-19T21:59:00.135Z,73.70
2018-12-19T21:59:33.963Z,73.70
2018-12-19T22:00:13.135Z,73.70
2018-12-19T22:00:46.651Z,73.80
2018-12-19T22:01:20.254Z,73.80
2018-12-19T22:01:53.744Z,73.80
2018-12-19T22:02:27.230Z,73.90
2018-12-19T22:03:05.054Z,73.90
2018-12-19T22:03:38.574Z,73.70
2018-12-19T22:04:12.053Z,73.70
2018-12-19T22:04:45.628Z,73.70
2018-12-19T22:05:19.135Z,73.60
2018-12-19T22:05:52.610Z,73.70
2018-12-19T22:06:26.185Z,73.60
2018-12-19T22:06:59.719Z,73.70
2018-12-19T22:07:33.245Z,73.70
2018-12-19T22:08:06.887Z,73.70
2018-12-19T22:08:41.175Z,73.70
2018-12-19T22:09:14.754Z,73.70
2018-12-19T22:09:48.303Z,73.70
2018-12-19T22:10:21.843Z,73.70
2018-12-19T22:10:55.411Z,73.70
2018-12-19T22:11:28.911Z,73.60
2018-12-19T22:12:02.384Z,73.50
2018-12-19T22:12:36.286Z,73.50
2018-12-19T22:13:09.745Z,73.40
2018-12-19T22:13:43.342Z,73.50
2018-12-19T22:14:17.638Z,73.50
2018-12-19T22:14:51.215Z,73.40
2018-12-19T22:15:24.765Z,73.70
2018-12-19T22:15:58.232Z,73.60
2018-12-19T22:16:37.218Z,73.40
2018-12-19T22:17:16.048Z,73.50
2018-12-19T22:17:53.729Z,73.50
2018-12-19T22:18:32.706Z,73.40
2018-12-19T22:19:07.252Z,73.40
2018-12-19T22:19:40.839Z,73.50
2018-12-19T22:20:14.997Z,73.50
2018-12-19T22:20:48.533Z,73.40
2018-12-19T22:21:22.018Z,73.40
2018-12-19T22:21:55.589Z,73.40
2018-12-19T22:22:29.228Z,74.40
2018-12-19T22:23:02.828Z,74.40
2018-12-19T22:23:37.012Z,74.40
2018-12-19T22:24:10.763Z,74.50
2018-12-19T22:24:44.333Z,74.50
2018-12-19T22:25:17.906Z,74.60
2018-12-19T22:25:51.344Z,74.60
2018-12-19T22:26:24.805Z,74.60
2018-12-19T22:26:58.384Z,74.60
2018-12-19T22:27:31.919Z,74.50
2018-12-19T22:28:05.826Z,74.60
2018-12-19T22:28:39.423Z,74.50
2018-12-19T22:29:13.140Z,74.50
2018-12-19T22:29:46.886Z,74.40
2018-12-19T22:30:20.736Z,74.50
2018-12-19T22:30:54.716Z,74.50
2018-12-19T22:31:28.166Z,74.50
2018-12-19T22:32:01.687Z,74.50
2018-12-19T22:32:35.179Z,74.40
2018-12-19T22:33:08.627Z,74.50
2018-12-19T22:33:42.087Z,74.60
2018-12-19T22:34:15.665Z,74.60
2018-12-19T22:34:49.131Z,74.60
2018-12-19T22:35:22.744Z,74.50
2018-12-19T22:35:56.389Z,74.50
2018-12-19T22:36:30.367Z,74.50
2018-12-19T22:37:03.858Z,74.60
2018-12-19T22:37:37.379Z,74.60
2018-12-19T22:38:10.918Z,74.70
2018-12-19T22:38:45.074Z,74.70
2018-12-19T22:39:18.788Z,74.70
2018-12-19T22:39:52.280Z,74.80
2018-12-19T22:40:25.774Z,74.80
2018-12-19T22:40:59.358Z,74.80
2018-12-19T22:41:32.993Z,74.70
2018-12-19T22:42:06.546Z,74.70
2018-12-19T22:42:40.114Z,74.70
2018-12-19T22:43:13.617Z,74.60
2018-12-19T22:43:47.353Z,74.50
2018-12-19T22:44:20.864Z,74.60
2018-12-19T22:44:54.345Z,74.60
2018-12-19T22:45:27.786Z,74.60
2018-12-19T22:46:01.242Z,74.70
2018-12-19T22:46:34.733Z,74.60
2018-12-19T22:47:08.456Z,74.60
2018-12-19T22:47:42.375Z,75.30
2018-12-19T22:48:16.117Z,74.50
2018-12-19T22:48:49.687Z,74.70
2018-12-19T22:49:23.256Z,74.70
2018-12-19T22:49:56.981Z,74.70
2018-12-19T22:50:30.573Z,74.70
2018-12-19T22:51:04.100Z,74.70
2018-12-19T22:51:37.837Z,74.80
2018-12-19T22:52:11.495Z,74.80
2018-12-19T22:52:45.021Z,74.90
2018-12-19T22:53:18.713Z,74.40
2018-12-19T22:53:52.408Z,74.80
2018-12-19T22:54:25.992Z,74.80
2018-12-19T22:54:59.626Z,74.80
2018-12-19T22:55:33.132Z,74.40
2018-12-19T22:56:06.839Z,74.80
2018-12-19T22:56:40.944Z,74.80
2018-12-19T22:57:14.429Z,74.70
2018-12-19T22:57:47.890Z,74.80
2018-12-19T22:58:21.587Z,74.60
2018-12-19T22:58:55.036Z,74.60
2018-12-19T22:59:29.046Z,74.50
2018-12-19T23:00:02.511Z,74.50
2018-12-19T23:02:45.098Z,74.40
2018-12-19T23:03:18.724Z,74.40
2018-12-19T23:03:57.531Z,74.30
2018-12-19T23:04:31.046Z,74.30
2018-12-19T23:05:04.757Z,74.30
2018-12-19T23:05:43.709Z,74.40
2018-12-19T23:06:17.383Z,74.40
2018-12-19T23:06:51.009Z,74.60
2018-12-19T23:07:24.553Z,74.50
2018-12-19T23:07:58.323Z,74.50
2018-12-19T23:08:31.770Z,74.40
2018-12-19T23:09:07.288Z,74.50
2018-12-19T23:09:40.775Z,74.50
2018-12-19T23:10:14.330Z,74.50
2018-12-19T23:10:47.919Z,74.40
2018-12-19T23:11:21.433Z,74.50
2018-12-19T23:11:54.959Z,74.40
2018-12-19T23:12:28.486Z,74.50
2018-12-19T23:13:02.026Z,74.40
2018-12-19T23:13:35.513Z,74.40
2018-12-19T23:14:15.360Z,74.30
2018-12-19T23:14:45.639Z,74.40
2018-12-19T23:15:20.357Z,74.40
2018-12-19T23:15:54.360Z,74.60
2018-12-19T23:16:28.533Z,74.50
2018-12-19T23:17:06.239Z,74.50
2018-12-19T23:17:40.336Z,74.40
2018-12-19T23:18:19.493Z,74.40
2018-12-19T23:18:53.046Z,74.50
2018-12-19T23:19:26.796Z,74.50
2018-12-19T23:20:00.531Z,74.50
2018-12-19T23:20:34.220Z,74.50
2018-12-19T23:21:08.628Z,74.50
2018-12-19T23:21:42.233Z,74.50
2018-12-19T23:22:15.784Z,74.60
2018-12-19T23:22:49.466Z,74.60
2018-12-19T23:23:23.276Z,74.70
2018-12-19T23:23:56.770Z,74.60
2018-12-19T23:24:30.278Z,74.60
2018-12-19T23:25:04.882Z,74.70
2018-12-19T23:25:38.459Z,74.60
2018-12-19T23:26:12.228Z,74.60
2018-12-19T23:26:45.891Z,74.60
2018-12-19T23:27:20.346Z,74.60
2018-12-19T23:27:56.215Z,74.60
2018-12-19T23:28:30.339Z,74.50
2018-12-19T23:29:04.445Z,74.60
2018-12-19T23:29:38.013Z,74.60
2018-12-19T23:30:12.020Z,74.60
2018-12-19T23:30:45.740Z,74.50
2018-12-19T23:31:19.334Z,74.60
2018-12-19T23:31:52.854Z,74.60
2018-12-19T23:32:28.965Z,74.60
2018-12-19T23:33:02.453Z,74.60
2018-12-19T23:33:36.639Z,74.60
2018-12-19T23:34:10.257Z,74.60
2018-12-19T23:34:44.659Z,74.60
2018-12-19T23:35:18.129Z,74.50
2018-12-19T23:35:52.261Z,75.20
2018-12-19T23:36:26.009Z,74.80
2018-12-19T23:36:59.754Z,74.80
2018-12-19T23:37:34.169Z,74.60
2018-12-19T23:38:07.730Z,74.70
2018-12-19T23:38:41.474Z,74.60
2018-12-19T23:39:15.772Z,74.50
2018-12-19T23:39:49.249Z,74.50
2018-12-19T23:40:23.497Z,74.60
2018-12-19T23:40:57.060Z,74.60
2018-12-19T23:41:32.022Z,74.50
2018-12-19T23:42:05.545Z,74.40
2018-12-19T23:42:44.742Z,74.50
2018-12-19T23:43:18.302Z,74.50
2018-12-19T23:43:51.778Z,74.40
2018-12-19T23:44:30.554Z,74.40
2018-12-19T23:45:04.691Z,74.50
2018-12-19T23:45:38.273Z,74.60
2018-12-19T23:46:11.779Z,75.20
2018-12-19T23:46:45.483Z,74.30
2018-12-19T23:47:19.029Z,74.40
2018-12-19T23:47:53.498Z,74.40
2018-12-19T23:48:27.138Z,74.40
2018-12-19T23:49:00.842Z,74.40
2018-12-19T23:49:34.747Z,74.40
2018-12-19T23:50:08.552Z,75.20
2018-12-19T23:50:42.497Z,74.40
2018-12-19T23:51:16.066Z,74.40
2018-12-19T23:51:49.522Z,74.40
2018-12-19T23:52:23.038Z,74.50
2018-12-19T23:52:56.572Z,74.50
2018-12-19T23:53:30.091Z,74.50
2018-12-19T23:54:03.573Z,74.60
2018-12-19T23:54:37.044Z,74.50
2018-12-19T23:55:10.612Z,74.60
2018-12-19T23:55:44.241Z,74.60
2018-12-19T23:56:17.788Z,75.20
2018-12-19T23:56:51.469Z,74.60
2018-12-19T23:57:25.249Z,74.50
2018-12-19T23:58:00.108Z,74.40